createdAt,value
2022-07-27T00:00:43.807Z,28.39
2022-07-27T00:01:51.318Z,28.39
2022-07-27T00:02:47.233Z,28.38
2022-07-27T00:03:43.680Z,28.57
2022-07-27T00:04:43.721Z,28.39
2022-07-27T00:05:43.687Z,28.49
2022-07-27T00:06:43.682Z,28.38
2022-07-27T00:07:43.681Z,28.39
2022-07-27T00:08:43.682Z,28.49
2022-07-27T00:09:43.686Z,28.49
2022-07-27T00:10:43.684Z,28.47
2022-07-27T00:11:43.685Z,28.28
2022-07-27T00:12:43.690Z,28.57
2022-07-27T00:13:43.686Z,28.57
2022-07-27T00:14:43.688Z,28.39
2022-07-27T00:15:43.688Z,28.38
2022-07-27T00:16:43.796Z,28.28
2022-07-27T00:17:43.689Z,28.38
2022-07-27T00:18:43.694Z,28.38
2022-07-27T00:19:43.691Z,28.18
2022-07-27T00:20:43.692Z,28.39
2022-07-27T00:21:46.308Z,28.28
2022-07-27T00:22:43.693Z,28.29
2022-07-27T00:23:43.703Z,28.28
2022-07-27T00:24:43.695Z,28.39
2022-07-27T00:25:43.695Z,28.28
2022-07-27T00:26:43.702Z,28.28
2022-07-27T00:27:43.697Z,28.29
2022-07-27T00:28:43.698Z,28.28
2022-07-27T00:29:43.699Z,28.39
2022-07-27T00:30:43.700Z,28.29
2022-07-27T00:31:43.785Z,28.18
2022-07-27T00:32:43.701Z,28.29
2022-07-27T00:33:43.702Z,28.28
2022-07-27T00:34:43.707Z,27.98
2022-07-27T00:35:43.704Z,27.98
2022-07-27T00:36:43.705Z,28.00
2022-07-27T00:37:43.705Z,27.98
2022-07-27T00:38:43.707Z,28.00
2022-07-27T00:39:43.707Z,27.98
2022-07-27T00:40:43.710Z,27.98
2022-07-27T00:41:43.708Z,27.98
2022-07-27T00:42:43.710Z,27.98
2022-07-27T00:43:43.710Z,28.00
2022-07-27T00:44:43.711Z,28.09
2022-07-27T00:45:43.711Z,27.98
2022-07-27T00:46:43.804Z,28.09
2022-07-27T00:47:43.717Z,28.09
2022-07-27T00:48:43.865Z,28.08
2022-07-27T00:49:43.713Z,28.00
2022-07-27T00:50:43.716Z,28.19
2022-07-27T00:51:43.721Z,28.09
2022-07-27T00:52:43.716Z,28.29
2022-07-27T00:53:43.718Z,28.18
2022-07-27T00:54:43.737Z,28.19
2022-07-27T00:55:43.757Z,28.18
2022-07-27T00:56:43.721Z,28.09
2022-07-27T00:57:58.838Z,28.18
2022-07-27T00:58:43.722Z,28.18
2022-07-27T00:59:43.722Z,28.00
2022-07-27T01:00:43.725Z,28.08
2022-07-27T01:01:43.915Z,28.18
2022-07-27T01:02:46.335Z,28.09
2022-07-27T01:03:43.727Z,28.19
2022-07-27T01:04:43.736Z,28.28
2022-07-27T01:05:44.223Z,28.08
2022-07-27T01:06:43.729Z,28.18
2022-07-27T01:07:43.729Z,28.19
2022-07-27T01:08:43.730Z,28.19
2022-07-27T01:09:43.730Z,28.18
2022-07-27T01:10:43.811Z,28.19
2022-07-27T01:11:43.828Z,28.08
2022-07-27T01:12:43.734Z,28.19
2022-07-27T01:13:43.733Z,28.19
2022-07-27T01:14:43.736Z,28.18
2022-07-27T01:15:43.866Z,28.28
2022-07-27T01:16:43.737Z,28.18
2022-07-27T01:17:43.735Z,28.28
2022-07-27T01:18:43.739Z,28.28
2022-07-27T01:19:43.738Z,28.19
2022-07-27T01:20:43.739Z,28.19
2022-07-27T01:21:43.741Z,28.28
2022-07-27T01:22:43.743Z,28.28
2022-07-27T01:23:43.747Z,28.18
2022-07-27T01:24:43.743Z,28.29
2022-07-27T01:25:43.743Z,28.28
2022-07-27T01:26:43.746Z,28.19
2022-07-27T01:27:43.746Z,28.29
2022-07-27T01:28:43.746Z,28.38
2022-07-27T01:29:43.749Z,28.38
2022-07-27T01:30:43.750Z,28.38
2022-07-27T01:31:43.865Z,28.38
2022-07-27T01:32:43.749Z,28.38
2022-07-27T01:33:43.749Z,28.47
2022-07-27T01:34:43.751Z,28.38
2022-07-27T01:35:43.751Z,28.39
2022-07-27T01:36:43.753Z,28.28
2022-07-27T01:37:47.609Z,28.28
2022-07-27T01:38:43.754Z,28.08
2022-07-27T01:39:43.754Z,28.28
2022-07-27T01:40:43.755Z,28.08
2022-07-27T01:41:43.908Z,28.18
2022-07-27T01:42:43.757Z,28.18
2022-07-27T01:43:43.759Z,28.18
2022-07-27T01:44:43.761Z,28.28
2022-07-27T01:45:43.759Z,28.08
2022-07-27T01:46:43.861Z,27.98
2022-07-27T01:47:43.760Z,28.00
2022-07-27T01:48:43.793Z,27.98
2022-07-27T01:49:43.761Z,28.08
2022-07-27T01:50:43.767Z,27.98
2022-07-27T01:51:43.765Z,27.90
2022-07-27T01:52:43.773Z,28.00
2022-07-27T01:53:43.765Z,27.89
2022-07-27T01:54:43.767Z,28.09
2022-07-27T01:55:43.767Z,27.89
2022-07-27T01:56:43.769Z,27.90
2022-07-27T01:57:43.768Z,28.08
2022-07-27T01:58:43.782Z,27.98
2022-07-27T01:59:43.771Z,27.98
2022-07-27T02:00:43.771Z,27.79
2022-07-27T02:01:43.892Z,27.79
2022-07-27T02:02:43.776Z,27.89
2022-07-27T02:03:43.776Z,27.79
2022-07-27T02:04:43.774Z,27.80
2022-07-27T02:05:43.895Z,27.79
2022-07-27T02:06:43.776Z,27.80
2022-07-27T02:07:43.776Z,27.79
2022-07-27T02:08:43.779Z,27.79
2022-07-27T02:09:43.778Z,27.90
2022-07-27T02:10:43.779Z,27.89
2022-07-27T02:11:43.780Z,27.89
2022-07-27T02:12:43.780Z,27.98
2022-07-27T02:13:43.781Z,27.89
2022-07-27T02:14:43.784Z,27.90
2022-07-27T02:15:44.650Z,28.08
2022-07-27T02:16:43.928Z,27.98
2022-07-27T02:17:43.787Z,27.89
2022-07-27T02:18:43.787Z,27.98
2022-07-27T02:19:43.784Z,28.08
2022-07-27T02:20:43.787Z,28.08
2022-07-27T02:21:43.787Z,28.08
2022-07-27T02:22:43.791Z,28.28
2022-07-27T02:23:43.789Z,28.28
2022-07-27T02:24:43.790Z,28.29
2022-07-27T02:25:43.789Z,28.18
2022-07-27T02:26:43.793Z,28.38
2022-07-27T02:27:43.801Z,28.28
2022-07-27T02:28:43.793Z,28.39
2022-07-27T02:29:43.796Z,28.38
2022-07-27T02:30:43.795Z,28.28
2022-07-27T02:31:43.798Z,28.18
2022-07-27T02:32:44.430Z,28.29
2022-07-27T02:33:43.796Z,28.38
2022-07-27T02:34:43.798Z,28.28
2022-07-27T02:35:43.799Z,28.38
2022-07-27T02:36:43.823Z,28.28
2022-07-27T02:37:43.806Z,28.28
2022-07-27T02:38:43.801Z,28.47
2022-07-27T02:39:43.807Z,28.39
2022-07-27T02:40:43.805Z,28.28
2022-07-27T02:41:43.801Z,28.38
2022-07-27T02:42:43.805Z,28.28
2022-07-27T02:43:43.804Z,28.38
2022-07-27T02:44:43.811Z,28.39
2022-07-27T02:45:43.807Z,28.28
2022-07-27T02:46:43.879Z,28.38
2022-07-27T02:47:43.819Z,28.38
2022-07-27T02:48:43.939Z,28.28
2022-07-27T02:49:43.809Z,28.38
2022-07-27T02:50:43.815Z,28.18
2022-07-27T02:51:43.810Z,28.38
2022-07-27T02:52:43.812Z,28.28
2022-07-27T02:53:43.812Z,28.28
2022-07-27T02:54:43.813Z,28.28
2022-07-27T02:55:43.817Z,28.18
2022-07-27T02:56:43.813Z,28.18
2022-07-27T02:57:43.816Z,28.18
2022-07-27T02:58:43.817Z,28.09
2022-07-27T02:59:43.816Z,28.19
2022-07-27T03:00:43.818Z,28.18
2022-07-27T03:01:43.902Z,28.18
2022-07-27T03:02:43.823Z,28.08
2022-07-27T03:03:43.821Z,27.98
2022-07-27T03:04:43.883Z,28.09
2022-07-27T03:05:43.824Z,28.08
2022-07-27T03:06:43.823Z,28.18
2022-07-27T03:07:43.823Z,28.28
2022-07-27T03:08:43.825Z,28.18
2022-07-27T03:09:43.828Z,28.08
2022-07-27T03:10:48.648Z,28.08
2022-07-27T03:11:43.838Z,28.08
2022-07-27T03:12:43.828Z,27.90
2022-07-27T03:13:43.826Z,28.08
2022-07-27T03:14:43.828Z,27.89
2022-07-27T03:15:43.949Z,28.09
2022-07-27T03:16:43.830Z,27.98
2022-07-27T03:17:47.167Z,27.98
2022-07-27T03:18:43.831Z,28.09
2022-07-27T03:19:43.832Z,27.98
2022-07-27T03:20:43.835Z,27.89
2022-07-27T03:21:43.831Z,27.89
2022-07-27T03:22:43.834Z,27.89
2022-07-27T03:23:43.834Z,28.08
2022-07-27T03:24:43.836Z,27.90
2022-07-27T03:25:43.838Z,27.98
2022-07-27T03:26:43.837Z,27.89
2022-07-27T03:27:43.837Z,27.89
2022-07-27T03:28:43.840Z,27.98
2022-07-27T03:29:43.838Z,27.98
2022-07-27T03:30:44.008Z,27.89
2022-07-27T03:31:43.866Z,27.98
2022-07-27T03:32:43.843Z,27.89
2022-07-27T03:33:43.841Z,27.89
2022-07-27T03:34:43.843Z,27.79
2022-07-27T03:35:43.843Z,27.79
2022-07-27T03:36:43.846Z,28.08
2022-07-27T03:37:43.848Z,27.80
2022-07-27T03:38:43.847Z,27.79
2022-07-27T03:39:43.847Z,27.90
2022-07-27T03:40:43.848Z,27.79
2022-07-27T03:41:43.847Z,27.80
2022-07-27T03:42:43.856Z,28.09
2022-07-27T03:43:43.864Z,27.79
2022-07-27T03:44:43.850Z,27.79
2022-07-27T03:45:43.945Z,27.79
2022-07-27T03:46:43.852Z,27.79
2022-07-27T03:47:43.856Z,27.79
2022-07-27T03:48:43.932Z,27.79
2022-07-27T03:49:43.853Z,27.79
2022-07-27T03:50:43.855Z,27.80
2022-07-27T03:51:43.857Z,27.79
2022-07-27T03:52:45.456Z,27.79
2022-07-27T03:53:43.855Z,27.89
2022-07-27T03:54:43.859Z,27.89
2022-07-27T03:55:43.859Z,28.08
2022-07-27T03:56:43.860Z,27.80
2022-07-27T03:57:43.860Z,27.79
2022-07-27T03:58:43.861Z,27.79
2022-07-27T03:59:43.862Z,27.98
2022-07-27T04:00:43.861Z,27.79
2022-07-27T04:01:43.967Z,27.79
2022-07-27T04:02:43.963Z,28.08
2022-07-27T04:03:44.466Z,27.89
2022-07-27T04:04:43.865Z,27.69
2022-07-27T04:05:43.865Z,27.89
2022-07-27T04:06:43.867Z,27.79
2022-07-27T04:07:43.867Z,27.79
2022-07-27T04:08:43.870Z,27.79
2022-07-27T04:09:43.966Z,27.80
2022-07-27T04:10:43.869Z,27.79
2022-07-27T04:11:51.147Z,28.09
2022-07-27T04:12:43.870Z,27.79
2022-07-27T04:13:43.873Z,27.98
2022-07-27T04:14:43.875Z,27.89
2022-07-27T04:15:43.873Z,27.98
2022-07-27T04:16:43.926Z,27.89
2022-07-27T04:17:54.786Z,27.98
2022-07-27T04:18:43.902Z,27.90
2022-07-27T04:19:43.876Z,27.89
2022-07-27T04:20:43.878Z,27.98
2022-07-27T04:21:43.878Z,27.98
2022-07-27T04:22:43.878Z,27.98
2022-07-27T04:23:43.880Z,27.98
2022-07-27T04:24:43.880Z,28.08
2022-07-27T04:25:43.881Z,27.98
2022-07-27T04:26:43.881Z,28.08
2022-07-27T04:27:43.884Z,28.18
2022-07-27T04:28:43.881Z,27.98
2022-07-27T04:29:43.884Z,28.08
2022-07-27T04:30:43.946Z,27.98
2022-07-27T04:31:43.885Z,27.89
2022-07-27T04:32:43.900Z,27.89
2022-07-27T04:33:43.887Z,27.89
2022-07-27T04:34:43.887Z,27.98
2022-07-27T04:35:43.888Z,27.89
2022-07-27T04:36:43.889Z,27.98
2022-07-27T04:37:58.917Z,27.98
2022-07-27T04:38:43.889Z,27.98
2022-07-27T04:39:43.892Z,27.89
2022-07-27T04:40:43.890Z,27.89
2022-07-27T04:41:43.893Z,27.89
2022-07-27T04:42:49.381Z,27.98
2022-07-27T04:43:43.898Z,27.89
2022-07-27T04:44:43.893Z,27.89
2022-07-27T04:45:44.030Z,27.89
2022-07-27T04:46:43.896Z,27.98
2022-07-27T04:47:43.898Z,27.98
2022-07-27T04:48:49.151Z,27.79
2022-07-27T04:49:43.900Z,27.89
2022-07-27T04:50:43.898Z,27.89
2022-07-27T04:51:43.902Z,27.89
2022-07-27T04:52:43.902Z,27.79
2022-07-27T04:53:53.417Z,27.79
2022-07-27T04:54:43.905Z,27.79
2022-07-27T04:55:43.903Z,27.98
2022-07-27T04:56:43.905Z,27.89
2022-07-27T04:57:43.904Z,27.89
2022-07-27T04:58:43.904Z,27.79
2022-07-27T04:59:43.906Z,27.79
2022-07-27T05:00:44.001Z,27.98
2022-07-27T05:01:44.025Z,27.79
2022-07-27T05:02:43.909Z,27.98
2022-07-27T05:03:43.985Z,27.89
2022-07-27T05:04:43.908Z,27.89
2022-07-27T05:05:50.099Z,27.89
2022-07-27T05:06:43.911Z,27.79
2022-07-27T05:07:43.912Z,27.89
2022-07-27T05:08:43.910Z,28.08
2022-07-27T05:09:43.913Z,28.08
2022-07-27T05:10:43.912Z,28.08
2022-07-27T05:11:51.835Z,28.18
2022-07-27T05:12:43.913Z,28.18
2022-07-27T05:13:43.915Z,28.38
2022-07-27T05:14:43.916Z,28.28
2022-07-27T05:15:54.866Z,28.28
2022-07-27T05:16:43.981Z,28.38
2022-07-27T05:17:43.919Z,28.28
2022-07-27T05:18:43.918Z,28.38
2022-07-27T05:19:43.923Z,28.18
2022-07-27T05:20:43.926Z,28.38
2022-07-27T05:21:43.933Z,28.38
2022-07-27T05:22:43.923Z,28.18
2022-07-27T05:23:43.925Z,28.18
2022-07-27T05:24:43.922Z,28.28
2022-07-27T05:25:43.931Z,28.28
2022-07-27T05:26:43.925Z,28.18
2022-07-27T05:27:54.159Z,28.18
2022-07-27T05:28:43.926Z,28.38
2022-07-27T05:29:43.927Z,28.28
2022-07-27T05:30:43.926Z,28.18
2022-07-27T05:31:44.095Z,28.28
2022-07-27T05:32:43.928Z,28.18
2022-07-27T05:33:48.311Z,28.18
2022-07-27T05:34:43.929Z,28.28
2022-07-27T05:35:43.930Z,28.28
2022-07-27T05:36:43.930Z,28.08
2022-07-27T05:37:43.931Z,28.18
2022-07-27T05:38:43.932Z,28.18
2022-07-27T05:39:43.939Z,28.18
2022-07-27T05:40:43.933Z,28.18
2022-07-27T05:41:43.937Z,28.28
2022-07-27T05:42:43.952Z,28.08
2022-07-27T05:43:43.938Z,28.18
2022-07-27T05:44:43.937Z,28.18
2022-07-27T05:45:43.984Z,28.28
2022-07-27T05:46:43.939Z,28.18
2022-07-27T05:47:43.939Z,28.18
2022-07-27T05:48:43.998Z,28.18
2022-07-27T05:49:43.941Z,28.18
2022-07-27T05:50:43.941Z,28.18
2022-07-27T05:51:43.942Z,28.18
2022-07-27T05:52:43.941Z,28.08
2022-07-27T05:53:43.944Z,28.28
2022-07-27T05:54:43.944Z,28.08
2022-07-27T05:55:58.646Z,28.08
2022-07-27T05:56:43.946Z,28.28
2022-07-27T05:57:43.952Z,28.08
2022-07-27T05:58:43.947Z,28.18
2022-07-27T05:59:43.951Z,28.18
2022-07-27T06:00:44.002Z,28.08
2022-07-27T06:01:43.950Z,28.08
2022-07-27T06:02:43.949Z,27.98
2022-07-27T06:03:44.027Z,28.08
2022-07-27T06:04:43.951Z,28.18
2022-07-27T06:05:43.953Z,28.08
2022-07-27T06:06:43.954Z,28.08
2022-07-27T06:07:43.954Z,28.08
2022-07-27T06:08:43.952Z,28.08
2022-07-27T06:09:43.955Z,27.98
2022-07-27T06:10:43.962Z,28.08
2022-07-27T06:11:43.958Z,27.98
2022-07-27T06:12:43.955Z,27.98
2022-07-27T06:13:43.960Z,28.08
2022-07-27T06:14:43.957Z,27.98
2022-07-27T06:15:43.970Z,27.89
2022-07-27T06:16:44.009Z,27.98
2022-07-27T06:17:43.960Z,27.98
2022-07-27T06:18:43.961Z,28.38
2022-07-27T06:19:43.964Z,28.38
2022-07-27T06:20:43.963Z,27.98
2022-07-27T06:21:43.964Z,28.28
2022-07-27T06:22:43.963Z,28.28
2022-07-27T06:23:43.970Z,28.28
2022-07-27T06:24:43.965Z,28.28
2022-07-27T06:25:43.966Z,28.28
2022-07-27T06:26:43.965Z,28.28
2022-07-27T06:27:43.970Z,28.38
2022-07-27T06:28:43.967Z,28.28
2022-07-27T06:29:43.969Z,28.28
2022-07-27T06:30:43.974Z,28.28
2022-07-27T06:31:44.830Z,28.28
2022-07-27T06:32:43.973Z,28.38
2022-07-27T06:33:45.325Z,28.28
2022-07-27T06:34:43.973Z,28.38
2022-07-27T06:35:43.974Z,28.38
2022-07-27T06:36:43.972Z,28.38
2022-07-27T06:37:44.204Z,28.38
2022-07-27T06:38:43.977Z,28.18
2022-07-27T06:39:43.976Z,28.28
2022-07-27T06:40:43.977Z,28.28
2022-07-27T06:41:43.977Z,28.28
2022-07-27T06:42:43.977Z,28.18
2022-07-27T06:43:43.980Z,28.28
2022-07-27T06:44:43.978Z,28.38
2022-07-27T06:45:43.980Z,28.38
2022-07-27T06:46:44.046Z,28.28
2022-07-27T06:47:48.987Z,28.28
2022-07-27T06:48:44.032Z,28.28
2022-07-27T06:49:43.983Z,28.28
2022-07-27T06:50:43.986Z,28.28
2022-07-27T06:51:43.988Z,28.28
2022-07-27T06:52:43.983Z,28.38
2022-07-27T06:53:43.985Z,28.28
2022-07-27T06:54:43.987Z,28.28
2022-07-27T06:55:43.989Z,28.57
2022-07-27T06:56:43.987Z,28.57
2022-07-27T06:57:43.990Z,28.47
2022-07-27T06:58:43.988Z,28.47
2022-07-27T06:59:44.103Z,28.57
2022-07-27T07:00:44.130Z,28.47
2022-07-27T07:01:48.484Z,28.38
2022-07-27T07:02:43.991Z,28.38
2022-07-27T07:03:44.032Z,28.47
2022-07-27T07:04:43.992Z,28.47
2022-07-27T07:05:43.994Z,28.47
2022-07-27T07:06:43.995Z,28.38
2022-07-27T07:07:43.997Z,28.28
2022-07-27T07:08:43.997Z,28.47
2022-07-27T07:09:43.997Z,28.38
2022-07-27T07:10:43.997Z,28.38
2022-07-27T07:11:44.000Z,28.38
2022-07-27T07:12:43.997Z,28.47
2022-07-27T07:13:45.179Z,28.38
2022-07-27T07:14:44.000Z,28.38
2022-07-27T07:15:44.001Z,28.66
2022-07-27T07:16:44.063Z,28.57
2022-07-27T07:17:44.002Z,28.57
2022-07-27T07:18:46.645Z,28.57
2022-07-27T07:19:44.004Z,28.66
2022-07-27T07:20:44.003Z,29.05
2022-07-27T07:21:44.006Z,28.96
2022-07-27T07:22:44.005Z,28.76
2022-07-27T07:23:44.008Z,28.86
2022-07-27T07:24:44.007Z,28.96
2022-07-27T07:25:44.009Z,28.96
2022-07-27T07:26:44.007Z,28.66
2022-07-27T07:27:44.009Z,28.96
2022-07-27T07:28:44.009Z,28.96
2022-07-27T07:29:44.011Z,28.86
2022-07-27T07:30:44.011Z,28.96
2022-07-27T07:31:44.134Z,28.96
2022-07-27T07:32:44.013Z,28.96
2022-07-27T07:33:44.014Z,28.96
2022-07-27T07:34:44.014Z,28.96
2022-07-27T07:36:12.889Z,28.86
2022-07-27T07:36:44.015Z,28.86
2022-07-27T07:37:44.017Z,28.86
2022-07-27T07:38:44.017Z,28.86
2022-07-27T07:39:44.018Z,28.76
2022-07-27T07:40:45.094Z,28.76
2022-07-27T07:41:44.023Z,28.76
2022-07-27T07:42:44.027Z,28.76
2022-07-27T07:43:44.020Z,28.66
2022-07-27T07:44:44.019Z,28.66
2022-07-27T07:45:50.280Z,28.66
2022-07-27T07:46:47.259Z,28.57
2022-07-27T07:47:44.025Z,28.86
2022-07-27T07:48:44.066Z,28.57
2022-07-27T07:49:44.099Z,28.57
2022-07-27T07:50:44.024Z,28.66
2022-07-27T07:51:44.027Z,28.66
2022-07-27T07:52:44.026Z,28.76
2022-07-27T07:53:44.029Z,28.86
2022-07-27T07:54:44.027Z,28.76
2022-07-27T07:55:44.029Z,28.76
2022-07-27T07:56:44.032Z,28.86
2022-07-27T07:57:44.030Z,28.86
2022-07-27T07:58:44.031Z,29.25
2022-07-27T07:59:44.032Z,29.05
2022-07-27T08:00:44.031Z,28.49
2022-07-27T08:01:44.164Z,28.66
2022-07-27T08:02:44.081Z,28.86
2022-07-27T08:03:47.448Z,28.96
2022-07-27T08:04:44.035Z,28.96
2022-07-27T08:05:44.039Z,28.88
2022-07-27T08:06:44.036Z,28.76
2022-07-27T08:07:44.055Z,28.66
2022-07-27T08:08:44.035Z,28.76
2022-07-27T08:09:44.038Z,28.66
2022-07-27T08:10:44.046Z,29.94
2022-07-27T08:11:44.040Z,29.15
2022-07-27T08:12:44.040Z,28.66
2022-07-27T08:13:44.042Z,28.96
2022-07-27T08:14:44.045Z,28.76
2022-07-27T08:15:44.124Z,28.68
2022-07-27T08:16:44.134Z,28.76
2022-07-27T08:17:44.046Z,28.76
2022-07-27T08:18:44.044Z,28.76
2022-07-27T08:19:44.047Z,28.68
2022-07-27T08:20:44.047Z,28.58
2022-07-27T08:21:44.047Z,28.49
2022-07-27T08:22:44.156Z,28.68
2022-07-27T08:23:44.050Z,28.58
2022-07-27T08:24:44.053Z,28.39
2022-07-27T08:25:44.049Z,28.58
2022-07-27T08:26:44.053Z,28.66
2022-07-27T08:27:44.052Z,28.76
2022-07-27T08:28:44.068Z,28.76
2022-07-27T08:29:44.053Z,28.58
2022-07-27T08:30:44.055Z,28.68
2022-07-27T08:31:52.482Z,28.49
2022-07-27T08:32:44.056Z,28.49
2022-07-27T08:33:44.056Z,28.68
2022-07-27T08:34:44.059Z,28.58
2022-07-27T08:35:44.059Z,28.58
2022-07-27T08:36:44.060Z,28.38
2022-07-27T08:37:44.064Z,28.68
2022-07-27T08:38:44.062Z,28.39
2022-07-27T08:40:46.239Z,28.76
2022-07-27T08:41:44.063Z,28.58
2022-07-27T08:42:44.066Z,28.39
2022-07-27T08:43:44.066Z,28.68
2022-07-27T08:44:44.066Z,28.49
2022-07-27T08:45:44.067Z,28.39
2022-07-27T08:46:44.140Z,28.49
2022-07-27T08:47:44.070Z,28.49
2022-07-27T08:48:44.097Z,28.49
2022-07-27T08:49:44.368Z,28.68
2022-07-27T08:50:44.089Z,28.49
2022-07-27T08:51:47.201Z,28.39
2022-07-27T08:52:44.074Z,28.39
2022-07-27T08:53:53.213Z,28.49
2022-07-27T08:54:44.076Z,28.39
2022-07-27T08:55:44.080Z,28.39
2022-07-27T08:56:44.077Z,28.49
2022-07-27T08:57:44.080Z,28.39
2022-07-27T08:58:44.081Z,28.49
2022-07-27T08:59:44.079Z,28.39
2022-07-27T09:00:44.080Z,28.39
2022-07-27T09:01:44.125Z,28.58
2022-07-27T09:02:44.148Z,28.58
2022-07-27T09:03:44.134Z,28.58
2022-07-27T09:04:44.082Z,28.49
2022-07-27T09:05:44.089Z,28.58
2022-07-27T09:06:44.086Z,28.58
2022-07-27T09:07:44.086Z,28.49
2022-07-27T09:08:44.087Z,28.39
2022-07-27T09:09:44.088Z,28.39
2022-07-27T09:10:44.088Z,28.49
2022-07-27T09:11:44.090Z,28.39
2022-07-27T09:12:44.090Z,28.38
2022-07-27T09:13:44.089Z,28.39
2022-07-27T09:14:44.091Z,28.49
2022-07-27T09:16:12.496Z,28.68
2022-07-27T09:17:44.165Z,28.58
2022-07-27T09:17:48.551Z,28.39
2022-07-27T09:18:44.096Z,28.58
2022-07-27T09:19:44.096Z,28.68
2022-07-27T09:20:44.099Z,28.39
2022-07-27T09:21:44.098Z,28.49
2022-07-27T09:22:44.100Z,28.58
2022-07-27T09:23:44.100Z,28.39
2022-07-27T09:24:47.232Z,28.49
2022-07-27T09:26:02.971Z,28.58
2022-07-27T09:26:44.102Z,28.58
2022-07-27T09:27:44.104Z,28.39
2022-07-27T09:28:44.105Z,28.39
2022-07-27T09:29:44.102Z,28.39
2022-07-27T09:30:44.387Z,28.00
2022-07-27T09:31:44.228Z,28.00
2022-07-27T09:32:44.109Z,28.19
2022-07-27T09:33:44.112Z,28.29
2022-07-27T09:34:44.191Z,28.19
2022-07-27T09:35:44.108Z,28.29
2022-07-27T09:36:44.116Z,28.29
2022-07-27T09:37:44.112Z,28.39
2022-07-27T09:38:44.114Z,28.19
2022-07-27T09:39:44.113Z,28.39
2022-07-27T09:40:44.115Z,28.00
2022-07-27T09:41:44.123Z,28.19
2022-07-27T09:44:45.006Z,28.00
2022-07-27T09:45:44.118Z,27.90
2022-07-27T09:46:44.199Z,27.80
2022-07-27T09:47:44.120Z,28.02
2022-07-27T09:48:44.175Z,27.80
2022-07-27T09:49:44.124Z,28.00
2022-07-27T09:50:58.370Z,27.80
2022-07-27T09:51:59.535Z,27.92
2022-07-27T09:52:44.127Z,27.82
2022-07-27T09:53:44.419Z,27.82
2022-07-27T09:54:44.227Z,27.92
2022-07-27T09:55:44.128Z,27.82
2022-07-27T09:56:44.129Z,28.30
2022-07-27T09:57:44.131Z,27.82
2022-07-27T09:58:44.137Z,27.82
2022-07-27T09:59:44.131Z,27.92
2022-07-27T10:00:44.133Z,27.72
2022-07-27T10:01:49.922Z,27.82
2022-07-27T10:02:44.136Z,27.82
2022-07-27T10:03:44.144Z,27.72
2022-07-27T10:04:44.225Z,27.72
2022-07-27T10:05:44.137Z,27.72
2022-07-27T10:07:01.645Z,27.53
2022-07-27T10:07:44.141Z,27.62
2022-07-27T10:08:44.141Z,27.72
2022-07-27T10:09:44.142Z,27.33
2022-07-27T10:10:44.144Z,27.43
2022-07-27T10:11:44.145Z,27.33
2022-07-27T10:12:44.148Z,27.62
2022-07-27T10:13:44.292Z,27.72
2022-07-27T10:14:44.147Z,27.62
2022-07-27T10:15:44.186Z,27.53
2022-07-27T10:16:44.148Z,27.53
2022-07-27T10:17:44.258Z,27.72
2022-07-27T10:18:44.154Z,27.43
2022-07-27T10:19:44.152Z,27.33
2022-07-27T10:20:47.517Z,27.82
2022-07-27T10:21:44.155Z,27.43
2022-07-27T10:22:44.157Z,27.33
2022-07-27T10:23:44.158Z,27.43
2022-07-27T10:24:44.162Z,27.43
2022-07-27T10:25:44.162Z,27.82
2022-07-27T10:26:44.162Z,27.82
2022-07-27T10:27:44.161Z,27.62
2022-07-27T10:28:44.163Z,27.62
2022-07-27T10:29:44.163Z,27.62
2022-07-27T10:30:44.231Z,27.53
2022-07-27T10:31:44.222Z,27.33
2022-07-27T10:32:44.167Z,27.72
2022-07-27T10:33:44.169Z,27.53
2022-07-27T10:34:44.169Z,27.82
2022-07-27T10:35:44.173Z,27.62
2022-07-27T10:36:44.172Z,27.62
2022-07-27T10:37:44.171Z,27.82
2022-07-27T10:38:44.176Z,27.62
2022-07-27T10:39:44.175Z,27.62
2022-07-27T10:40:44.181Z,27.82
2022-07-27T10:41:44.177Z,27.72
2022-07-27T10:42:44.182Z,27.62
2022-07-27T10:43:44.180Z,27.82
2022-07-27T10:44:44.180Z,27.92
2022-07-27T10:46:00.263Z,27.82
2022-07-27T10:46:44.225Z,28.02
2022-07-27T10:47:44.183Z,27.82
2022-07-27T10:48:48.844Z,27.92
2022-07-27T10:49:44.185Z,27.92
2022-07-27T10:50:44.187Z,27.92
2022-07-27T10:51:44.188Z,27.70
2022-07-27T10:52:44.190Z,27.82
2022-07-27T10:54:10.824Z,27.82
2022-07-27T10:54:49.438Z,27.92
2022-07-27T10:55:44.192Z,28.02
2022-07-27T10:56:44.193Z,28.02
2022-07-27T10:57:44.193Z,28.11
2022-07-27T10:58:44.195Z,28.11
2022-07-27T11:00:07.505Z,28.02
2022-07-27T11:00:44.197Z,28.40
2022-07-27T11:01:44.255Z,28.11
2022-07-27T11:02:44.200Z,28.20
2022-07-27T11:03:44.199Z,28.20
2022-07-27T11:04:44.275Z,28.30
2022-07-27T11:05:59.488Z,28.40
2022-07-27T11:07:22.517Z,28.30
2022-07-27T11:07:48.746Z,28.30
2022-07-27T11:08:47.867Z,28.19
2022-07-27T11:10:44.207Z,28.40
2022-07-27T11:11:44.208Z,28.30
2022-07-27T11:12:44.213Z,28.30
2022-07-27T11:13:44.210Z,28.39
2022-07-27T11:14:44.212Z,28.40
2022-07-27T11:15:44.215Z,28.39
2022-07-27T11:16:55.029Z,28.19
2022-07-27T11:18:04.362Z,28.40
2022-07-27T11:18:44.325Z,28.30
2022-07-27T11:19:44.217Z,28.30
2022-07-27T11:20:44.218Z,28.29
2022-07-27T11:21:44.219Z,28.29
2022-07-27T11:23:52.007Z,28.19
2022-07-27T11:24:44.223Z,28.29
2022-07-27T11:25:44.222Z,28.29
2022-07-27T11:26:44.243Z,28.19
2022-07-27T11:27:44.225Z,28.19
2022-07-27T11:28:44.227Z,28.29
2022-07-27T11:29:44.227Z,28.30
2022-07-27T11:30:44.313Z,28.29
2022-07-27T11:31:55.175Z,28.19
2022-07-27T11:32:44.231Z,28.19
2022-07-27T11:33:44.236Z,28.29
2022-07-27T11:34:44.234Z,28.20
2022-07-27T11:35:44.233Z,28.09
2022-07-27T11:36:44.234Z,28.19
2022-07-27T11:37:44.235Z,28.29
2022-07-27T11:38:44.237Z,28.09
2022-07-27T11:39:59.903Z,28.19
2022-07-27T11:42:44.241Z,28.29
2022-07-27T11:43:45.595Z,28.29
2022-07-27T11:44:44.242Z,28.29
2022-07-27T11:45:44.297Z,28.19
2022-07-27T11:46:44.244Z,28.09
2022-07-27T11:47:44.247Z,28.19
2022-07-27T11:49:05.516Z,28.19
2022-07-27T11:49:44.336Z,28.29
2022-07-27T11:50:44.248Z,28.09
2022-07-27T11:51:44.250Z,28.09
2022-07-27T11:52:44.250Z,28.20
2022-07-27T11:53:44.251Z,28.19
2022-07-27T11:54:44.257Z,28.09
2022-07-27T11:55:44.253Z,28.09
2022-07-27T11:56:44.260Z,28.19
2022-07-27T11:57:44.253Z,28.09
2022-07-27T11:58:44.257Z,28.09
2022-07-27T11:59:44.257Z,28.19
2022-07-27T12:00:44.258Z,28.09
2022-07-27T12:01:44.258Z,28.19
2022-07-27T12:02:44.309Z,28.19
2022-07-27T12:03:47.221Z,28.09
2022-07-27T12:04:44.361Z,28.00
2022-07-27T12:05:44.261Z,28.20
2022-07-27T12:06:44.265Z,28.09
2022-07-27T12:07:44.264Z,28.02
2022-07-27T12:08:44.268Z,28.19
2022-07-27T12:09:44.268Z,28.00
2022-07-27T12:10:44.268Z,28.00
2022-07-27T12:11:44.268Z,28.09
2022-07-27T12:12:44.269Z,28.00
2022-07-27T12:13:44.268Z,27.90
2022-07-27T12:14:44.275Z,28.00
2022-07-27T12:15:46.622Z,27.92
2022-07-27T12:16:44.311Z,28.00
2022-07-27T12:17:44.273Z,28.09
2022-07-27T12:18:44.275Z,28.09
2022-07-27T12:19:44.276Z,28.09
2022-07-27T12:20:44.277Z,28.00
2022-07-27T12:21:48.380Z,28.00
2022-07-27T12:22:44.279Z,28.20
2022-07-27T12:23:44.280Z,28.00
2022-07-27T12:24:44.281Z,27.90
2022-07-27T12:25:44.281Z,28.00
2022-07-27T12:26:44.283Z,28.19
2022-07-27T12:27:44.283Z,28.09
2022-07-27T12:28:44.285Z,28.00
2022-07-27T12:29:44.285Z,28.09
2022-07-27T12:30:44.401Z,28.20
2022-07-27T12:31:44.286Z,28.09
2022-07-27T12:32:44.287Z,28.09
2022-07-27T12:33:44.290Z,28.00
2022-07-27T12:34:44.291Z,28.09
2022-07-27T12:35:46.265Z,28.19
2022-07-27T12:36:44.299Z,28.19
2022-07-27T12:37:44.292Z,28.19
2022-07-27T12:38:44.294Z,28.09
2022-07-27T12:39:44.297Z,28.00
2022-07-27T12:40:44.295Z,28.09
2022-07-27T12:41:44.295Z,28.09
2022-07-27T12:42:44.296Z,28.19
2022-07-27T12:43:44.299Z,28.19
2022-07-27T12:44:44.298Z,28.19
2022-07-27T12:45:44.347Z,28.19
2022-07-27T12:46:44.300Z,28.19
2022-07-27T12:47:44.302Z,28.19
2022-07-27T12:48:44.384Z,28.19
2022-07-27T12:49:46.533Z,28.09
2022-07-27T12:50:44.304Z,28.19
2022-07-27T12:51:44.304Z,28.19
2022-07-27T12:52:44.304Z,28.19
2022-07-27T12:53:44.306Z,28.09
2022-07-27T12:54:44.306Z,28.09
2022-07-27T12:55:44.311Z,28.19
2022-07-27T12:56:44.310Z,28.09
2022-07-27T12:57:55.683Z,28.09
2022-07-27T12:58:44.310Z,28.09
2022-07-27T12:59:44.316Z,28.09